createdAt,value
2022-10-09T00:00:22.678Z,32.20
2022-10-09T00:03:46.435Z,32.00
2022-10-09T00:06:48.535Z,32.00
2022-10-09T00:09:50.415Z,31.90
2022-10-09T00:12:52.548Z,32.00
2022-10-09T00:15:54.464Z,32.10
2022-10-09T00:18:57.932Z,32.00
2022-10-09T00:21:59.785Z,32.10
2022-10-09T00:25:01.885Z,32.10
2022-10-09T00:28:04.765Z,32.00
2022-10-09T00:31:08.899Z,32.00
2022-10-09T00:34:10.780Z,32.10
2022-10-09T00:37:13.357Z,32.00
2022-10-09T00:40:16.432Z,32.10
2022-10-09T00:43:37.742Z,32.00
2022-10-09T00:46:45.873Z,32.00
2022-10-09T00:49:49.635Z,32.00
2022-10-09T00:52:55.075Z,32.00
2022-10-09T00:55:57.899Z,32.00
2022-10-09T00:59:00.209Z,32.00
2022-10-09T01:02:02.713Z,32.00
2022-10-09T01:05:06.097Z,32.00
2022-10-09T01:08:19.949Z,32.00
2022-10-09T01:11:56.359Z,32.00
2022-10-09T01:15:07.808Z,32.00
2022-10-09T01:18:22.328Z,32.00
2022-10-09T01:21:40.393Z,32.00
2022-10-09T01:24:50.958Z,31.90
2022-10-09T01:27:54.157Z,31.90
2022-10-09T01:31:02.695Z,31.80
2022-10-09T01:34:06.991Z,31.80
2022-10-09T01:37:11.554Z,31.80
2022-10-09T01:40:17.332Z,31.80
2022-10-09T01:43:20.054Z,31.70
2022-10-09T01:46:27.351Z,31.70
2022-10-09T01:49:40.377Z,31.60
2022-10-09T01:52:55.103Z,31.60
2022-10-09T01:56:04.891Z,31.50
2022-10-09T01:59:15.794Z,31.50
2022-10-09T02:02:18.848Z,31.50
2022-10-09T02:05:27.866Z,31.50
2022-10-09T02:08:32.999Z,31.50
2022-10-09T02:11:37.742Z,31.50
2022-10-09T02:14:39.990Z,31.50
2022-10-09T02:17:48.981Z,31.50
2022-10-09T02:20:55.614Z,31.40
2022-10-09T02:23:59.135Z,31.40
2022-10-09T02:27:02.496Z,31.40
2022-10-09T02:30:08.400Z,31.50
2022-10-09T02:33:10.268Z,31.50
2022-10-09T02:36:12.365Z,31.50
2022-10-09T02:39:14.627Z,31.50
2022-10-09T02:42:16.683Z,31.50
2022-10-09T02:45:18.588Z,31.40
2022-10-09T02:48:21.203Z,31.40
2022-10-09T02:51:23.372Z,31.40
2022-10-09T02:54:25.531Z,31.40
2022-10-09T02:57:27.447Z,31.40
2022-10-09T03:00:29.522Z,31.30
2022-10-09T03:03:32.006Z,31.20
2022-10-09T03:06:34.561Z,31.20
2022-10-09T03:09:36.488Z,31.20
2022-10-09T03:12:38.569Z,31.20
2022-10-09T03:15:40.914Z,31.20
2022-10-09T03:18:43.962Z,31.20
2022-10-09T03:21:45.891Z,31.20
2022-10-09T03:24:47.968Z,31.20
2022-10-09T03:27:49.891Z,31.20
2022-10-09T03:30:52.797Z,31.20
2022-10-09T03:33:54.806Z,31.20
2022-10-09T03:36:57.286Z,31.20
2022-10-09T03:39:59.309Z,31.20
2022-10-09T03:43:01.457Z,31.20
2022-10-09T03:46:08.127Z,31.20
2022-10-09T03:49:10.517Z,31.20
2022-10-09T03:52:12.338Z,31.10
2022-10-09T03:55:14.530Z,31.20
2022-10-09T03:58:16.382Z,31.10
2022-10-09T04:01:18.602Z,31.10
2022-10-09T04:04:20.472Z,31.10
2022-10-09T04:07:22.593Z,31.10
2022-10-09T04:10:24.490Z,31.00
2022-10-09T04:13:26.896Z,31.10
2022-10-09T04:16:28.826Z,31.00
2022-10-09T04:19:30.939Z,31.00
2022-10-09T04:22:32.904Z,31.00
2022-10-09T04:25:35.063Z,30.90
2022-10-09T04:28:36.989Z,30.90
2022-10-09T04:31:39.283Z,30.80
2022-10-09T04:34:41.215Z,30.80
2022-10-09T04:37:43.460Z,30.80
2022-10-09T04:40:45.911Z,30.70
2022-10-09T04:43:48.028Z,30.80
2022-10-09T04:46:52.885Z,30.70
2022-10-09T04:49:54.961Z,30.70
2022-10-09T04:52:56.812Z,30.70
2022-10-09T04:56:01.939Z,30.60
2022-10-09T04:59:04.261Z,30.60
2022-10-09T05:02:06.399Z,30.60
2022-10-09T05:05:08.791Z,30.60
2022-10-09T05:08:10.877Z,30.70
2022-10-09T05:11:15.663Z,30.70
2022-10-09T05:14:17.706Z,30.70
2022-10-09T05:17:23.264Z,30.70
2022-10-09T05:20:25.755Z,30.70
2022-10-09T05:23:28.436Z,30.70
2022-10-09T05:26:30.572Z,30.70
2022-10-09T05:29:33.173Z,30.70
2022-10-09T05:32:35.250Z,30.70
2022-10-09T05:35:37.129Z,30.70
2022-10-09T05:38:39.266Z,30.80
2022-10-09T05:41:41.160Z,30.90
2022-10-09T05:44:43.234Z,30.90
2022-10-09T05:47:46.196Z,31.00
2022-10-09T05:50:51.866Z,31.10
2022-10-09T05:53:54.960Z,31.10
2022-10-09T05:56:56.973Z,31.20
2022-10-09T05:59:58.865Z,31.20
2022-10-09T06:03:00.899Z,31.20
2022-10-09T06:06:05.162Z,31.20
2022-10-09T06:09:09.265Z,31.20
2022-10-09T06:12:11.190Z,31.20
2022-10-09T06:15:13.345Z,31.40
2022-10-09T06:18:15.221Z,31.50
2022-10-09T06:21:17.580Z,31.60
2022-10-09T06:24:28.648Z,31.70
2022-10-09T06:27:31.304Z,31.90
2022-10-09T06:30:37.799Z,32.00
2022-10-09T06:33:42.560Z,32.00
2022-10-09T06:36:44.486Z,32.10
2022-10-09T06:39:46.552Z,32.20
2022-10-09T06:42:48.699Z,32.30
2022-10-09T06:45:50.972Z,32.40
2022-10-09T06:48:52.899Z,32.50
2022-10-09T06:51:55.038Z,32.50
2022-10-09T06:54:56.978Z,32.50
2022-10-09T06:57:59.636Z,32.50
2022-10-09T07:01:07.036Z,32.50
2022-10-09T07:04:14.452Z,32.50
2022-10-09T07:07:16.423Z,32.60
2022-10-09T07:10:21.684Z,32.60
2022-10-09T07:13:29.253Z,32.70
2022-10-09T07:16:36.890Z,32.70
2022-10-09T07:19:38.851Z,32.70
2022-10-09T07:22:40.937Z,32.70
2022-10-09T07:25:42.820Z,32.80
2022-10-09T07:28:45.954Z,32.80
2022-10-09T07:31:48.380Z,32.70
2022-10-09T07:34:52.641Z,32.60
2022-10-09T07:37:54.529Z,32.80
2022-10-09T07:41:04.666Z,32.70
2022-10-09T07:44:06.674Z,32.90
2022-10-09T07:47:08.749Z,32.90
2022-10-09T07:50:10.602Z,33.00
2022-10-09T07:53:12.672Z,33.10
2022-10-09T07:56:22.036Z,33.10
2022-10-09T07:59:24.250Z,33.20
2022-10-09T08:02:26.205Z,33.20
2022-10-09T08:05:28.328Z,33.20
2022-10-09T08:08:30.273Z,33.40
2022-10-09T08:11:32.538Z,33.40
2022-10-09T08:14:34.551Z,33.50
2022-10-09T08:17:36.817Z,33.40
2022-10-09T08:20:39.491Z,33.50
2022-10-09T08:23:42.015Z,33.50
2022-10-09T08:26:44.327Z,33.60
2022-10-09T08:29:46.572Z,33.60
2022-10-09T08:32:48.762Z,33.60
2022-10-09T08:35:52.404Z,33.70
2022-10-09T08:38:54.435Z,33.70
2022-10-09T08:42:01.404Z,33.70
2022-10-09T08:45:04.265Z,33.70
2022-10-09T08:48:25.984Z,33.40
2022-10-09T08:51:32.440Z,33.40
2022-10-09T08:54:36.925Z,33.40
2022-10-09T08:57:39.975Z,33.60
2022-10-09T09:01:07.468Z,33.70
2022-10-09T09:04:27.850Z,33.80
2022-10-09T09:08:05.192Z,33.80
2022-10-09T09:11:17.042Z,33.50
2022-10-09T09:14:40.420Z,33.40
2022-10-09T09:18:04.103Z,33.30
2022-10-09T09:21:26.655Z,33.20
2022-10-09T09:24:38.078Z,33.40
2022-10-09T09:27:41.596Z,33.70
2022-10-09T09:31:28.113Z,33.70
2022-10-09T09:34:40.850Z,33.40
2022-10-09T09:37:42.804Z,32.90
2022-10-09T09:40:47.170Z,32.80
2022-10-09T09:43:49.545Z,33.00
2022-10-09T09:46:51.688Z,33.20
2022-10-09T09:49:56.154Z,33.70
2022-10-09T09:53:04.839Z,33.90
2022-10-09T09:56:08.017Z,33.80
2022-10-09T09:59:33.712Z,34.20
2022-10-09T10:02:36.554Z,34.50
2022-10-09T10:05:39.468Z,34.70
2022-10-09T10:08:41.468Z,34.70
2022-10-09T10:12:05.972Z,34.60
2022-10-09T10:15:20.872Z,34.60
2022-10-09T10:18:28.461Z,34.90
2022-10-09T10:21:49.435Z,35.00
2022-10-09T10:24:58.346Z,34.70
2022-10-09T10:28:13.598Z,34.70
2022-10-09T10:31:57.237Z,34.80
2022-10-09T10:35:29.553Z,34.80
2022-10-09T10:38:46.403Z,35.10
2022-10-09T10:41:51.373Z,35.10
2022-10-09T10:45:09.245Z,34.70
2022-10-09T10:48:23.428Z,34.60
2022-10-09T10:51:46.895Z,34.80
2022-10-09T10:54:59.909Z,35.10
2022-10-09T10:58:39.449Z,35.00
2022-10-09T11:01:44.214Z,34.50
2022-10-09T11:05:07.376Z,34.80
2022-10-09T11:08:30.255Z,35.10
2022-10-09T11:11:38.238Z,35.40
2022-10-09T11:15:01.266Z,35.50
2022-10-09T11:18:03.302Z,35.70
2022-10-09T11:21:14.017Z,35.60
2022-10-09T11:24:26.749Z,35.80
2022-10-09T11:27:38.216Z,36.00
2022-10-09T11:30:48.636Z,36.00
2022-10-09T11:33:53.398Z,35.90
2022-10-09T11:36:56.746Z,36.10
2022-10-09T11:39:58.854Z,36.20
2022-10-09T11:43:07.484Z,36.30
2022-10-09T11:46:34.749Z,36.20
2022-10-09T11:49:51.678Z,36.30
2022-10-09T11:53:24.788Z,36.40
2022-10-09T11:56:29.694Z,36.30
2022-10-09T11:59:37.447Z,36.40
2022-10-09T12:02:41.038Z,36.30
2022-10-09T12:05:46.394Z,36.40
2022-10-09T12:08:59.288Z,36.30
2022-10-09T12:12:18.400Z,36.30
2022-10-09T12:15:59.327Z,36.40
2022-10-09T12:19:05.090Z,36.40
2022-10-09T12:22:15.553Z,36.40
2022-10-09T12:25:32.506Z,36.40
2022-10-09T12:29:04.794Z,36.30
2022-10-09T12:32:15.583Z,35.40
2022-10-09T12:35:21.257Z,35.10
2022-10-09T12:38:29.027Z,35.00
2022-10-09T12:41:34.206Z,35.00
2022-10-09T12:44:39.962Z,34.90
2022-10-09T12:47:42.122Z,34.80
2022-10-09T12:50:44.063Z,34.80
2022-10-09T12:53:51.442Z,34.80
2022-10-09T12:56:56.127Z,34.80
2022-10-09T12:59:58.597Z,34.80
2022-10-09T13:03:01.593Z,34.90
2022-10-09T13:06:18.319Z,35.00
2022-10-09T13:09:35.611Z,35.10
2022-10-09T13:12:37.933Z,35.10
2022-10-09T13:15:39.794Z,35.10
2022-10-09T13:18:42.067Z,35.20
2022-10-09T13:21:43.944Z,35.30
2022-10-09T13:24:47.529Z,35.40
2022-10-09T13:27:49.625Z,35.50
2022-10-09T13:30:52.122Z,35.60
2022-10-09T13:33:54.078Z,35.60
2022-10-09T13:36:56.978Z,35.60
2022-10-09T13:39:59.960Z,35.60
2022-10-09T13:43:04.152Z,35.50
2022-10-09T13:46:06.662Z,35.20
2022-10-09T13:49:08.964Z,35.00
2022-10-09T13:52:11.013Z,35.00
2022-10-09T13:55:13.297Z,34.90
2022-10-09T13:58:15.157Z,34.70
2022-10-09T14:01:17.571Z,34.60
2022-10-09T14:04:20.844Z,34.70
2022-10-09T14:07:23.122Z,34.70
2022-10-09T14:10:25.360Z,34.80
2022-10-09T14:13:30.155Z,34.90
2022-10-09T14:16:32.660Z,34.90
2022-10-09T14:19:36.189Z,34.90
2022-10-09T14:22:40.636Z,35.00
2022-10-09T14:25:42.677Z,35.10
2022-10-09T14:28:44.773Z,35.00
2022-10-09T14:31:50.210Z,34.90
2022-10-09T14:34:53.305Z,34.80
2022-10-09T14:37:55.375Z,35.00
2022-10-09T14:40:57.512Z,35.00
2022-10-09T14:44:00.587Z,35.10
2022-10-09T14:47:02.712Z,34.90
2022-10-09T14:50:05.439Z,34.90
2022-10-09T14:53:07.369Z,34.90
2022-10-09T14:56:15.644Z,35.00
2022-10-09T14:59:18.061Z,34.90
2022-10-09T15:02:20.920Z,34.90
2022-10-09T15:05:23.447Z,34.90
2022-10-09T15:08:27.320Z,34.90
2022-10-09T15:11:30.354Z,34.90
2022-10-09T15:14:32.531Z,34.70
2022-10-09T15:17:34.596Z,34.80
2022-10-09T15:20:36.982Z,34.80
2022-10-09T15:23:38.832Z,34.70
2022-10-09T15:26:41.953Z,34.80
2022-10-09T15:29:43.998Z,34.90
2022-10-09T15:32:49.139Z,34.90
2022-10-09T15:35:53.274Z,34.80
2022-10-09T15:38:55.578Z,34.70
2022-10-09T15:41:58.110Z,34.60
2022-10-09T15:45:00.149Z,34.50
2022-10-09T15:48:02.461Z,34.40
2022-10-09T15:51:07.092Z,34.30
2022-10-09T15:54:11.925Z,34.20
2022-10-09T15:57:14.484Z,34.10
2022-10-09T16:00:16.580Z,34.00
2022-10-09T16:03:19.597Z,34.00
2022-10-09T16:06:23.699Z,33.80
2022-10-09T16:09:25.989Z,33.80
2022-10-09T16:12:27.916Z,33.60
2022-10-09T16:15:30.359Z,33.50
2022-10-09T16:18:32.717Z,33.40
2022-10-09T16:21:34.833Z,33.30
2022-10-09T16:24:36.993Z,33.20
2022-10-09T16:27:41.795Z,33.20
2022-10-09T16:30:45.481Z,33.00
2022-10-09T16:33:48.147Z,32.90
2022-10-09T16:36:50.045Z,32.80
2022-10-09T16:39:55.112Z,32.80
2022-10-09T16:43:05.454Z,32.70
2022-10-09T16:46:10.615Z,32.60
2022-10-09T16:49:19.989Z,32.50
2022-10-09T16:52:24.870Z,32.50
2022-10-09T16:55:29.476Z,32.40
2022-10-09T16:58:41.555Z,32.40
2022-10-09T17:01:45.239Z,32.30
2022-10-09T17:04:47.765Z,32.30
2022-10-09T17:07:50.071Z,32.30
2022-10-09T17:10:52.330Z,32.20
2022-10-09T17:13:56.778Z,32.20
2022-10-09T17:16:58.947Z,32.10
2022-10-09T17:20:00.970Z,32.10
2022-10-09T17:23:03.985Z,32.10
2022-10-09T17:26:06.817Z,32.00
2022-10-09T17:29:08.988Z,32.00
2022-10-09T17:32:10.835Z,32.00
2022-10-09T17:35:13.033Z,31.90
2022-10-09T17:38:14.910Z,31.80
2022-10-09T17:41:21.401Z,31.80
2022-10-09T17:44:23.521Z,31.70
2022-10-09T17:47:25.794Z,31.60
2022-10-09T17:50:27.747Z,31.60
2022-10-09T17:53:31.247Z,31.50
2022-10-09T17:56:33.258Z,31.50
2022-10-09T17:59:35.511Z,31.60
2022-10-09T18:02:37.356Z,31.50
2022-10-09T18:05:49.915Z,31.50
2022-10-09T18:08:54.319Z,31.40
2022-10-09T18:11:56.439Z,31.40
2022-10-09T18:14:59.868Z,31.40
2022-10-09T18:18:02.057Z,31.30
2022-10-09T18:21:09.382Z,31.20
2022-10-09T18:24:13.064Z,31.20
2022-10-09T18:27:14.921Z,31.20
2022-10-09T18:30:17.138Z,31.20
2022-10-09T18:33:19.317Z,31.20
2022-10-09T18:36:24.481Z,31.10
2022-10-09T18:39:26.680Z,31.10
2022-10-09T18:42:28.908Z,31.10
2022-10-09T18:45:30.898Z,31.00
2022-10-09T18:48:36.818Z,31.00
2022-10-09T18:51:41.591Z,31.00
2022-10-09T18:54:47.845Z,31.00
2022-10-09T18:57:52.828Z,31.00
2022-10-09T19:00:55.240Z,31.00
2022-10-09T19:03:57.365Z,30.90
2022-10-09T19:06:59.571Z,30.90
2022-10-09T19:10:01.732Z,30.80
2022-10-09T19:13:03.861Z,30.90
2022-10-09T19:16:06.259Z,30.80
2022-10-09T19:19:08.524Z,30.80
2022-10-09T19:22:15.210Z,30.70
2022-10-09T19:25:18.787Z,30.70
2022-10-09T19:28:22.473Z,30.70
2022-10-09T19:31:24.910Z,30.70
2022-10-09T19:34:26.927Z,30.70
2022-10-09T19:37:29.984Z,30.70
2022-10-09T19:40:35.474Z,30.60
2022-10-09T19:43:39.644Z,30.60
2022-10-09T19:46:41.657Z,30.60
2022-10-09T19:49:43.964Z,30.60
2022-10-09T19:52:47.025Z,30.60
2022-10-09T19:55:49.158Z,30.50
2022-10-09T19:58:51.062Z,30.50
2022-10-09T20:01:57.383Z,30.50
2022-10-09T20:04:59.631Z,30.50
2022-10-09T20:08:01.770Z,30.50
2022-10-09T20:11:04.883Z,30.40
2022-10-09T20:14:07.578Z,30.40
2022-10-09T20:17:09.573Z,30.40
2022-10-09T20:20:11.893Z,30.30
2022-10-09T20:23:13.808Z,30.30
2022-10-09T20:26:19.213Z,30.30
2022-10-09T20:29:21.168Z,30.30
2022-10-09T20:32:25.483Z,30.20
2022-10-09T20:35:27.385Z,30.30
2022-10-09T20:38:29.508Z,30.20
2022-10-09T20:41:39.663Z,30.20
2022-10-09T20:44:44.271Z,30.20
2022-10-09T20:47:50.284Z,30.10
2022-10-09T20:50:55.292Z,30.20
2022-10-09T20:54:00.960Z,30.20
2022-10-09T20:57:04.238Z,30.10
2022-10-09T21:00:07.522Z,30.20
2022-10-09T21:03:12.443Z,30.10
2022-10-09T21:06:20.636Z,30.10
2022-10-09T21:09:22.810Z,30.20
2022-10-09T21:12:24.776Z,30.10
2022-10-09T21:15:27.645Z,30.20
2022-10-09T21:18:30.089Z,30.20
2022-10-09T21:21:32.755Z,30.20
2022-10-09T21:24:34.879Z,30.20
2022-10-09T21:27:37.023Z,30.10
2022-10-09T21:30:41.528Z,30.10
2022-10-09T21:33:44.116Z,30.10
2022-10-09T21:37:20.879Z,30.10
2022-10-09T21:40:17.475Z,30.10
2022-10-09T21:43:19.393Z,30.20
2022-10-09T21:46:21.754Z,30.10
2022-10-09T21:49:27.192Z,30.10
2022-10-09T21:52:29.338Z,30.00
2022-10-09T21:55:31.463Z,30.00
2022-10-09T21:58:33.576Z,30.00
2022-10-09T22:01:35.550Z,30.00
2022-10-09T22:04:37.719Z,30.00
2022-10-09T22:07:39.750Z,30.00
2022-10-09T22:10:42.255Z,30.10
2022-10-09T22:13:44.575Z,30.20
2022-10-09T22:16:46.682Z,30.30
2022-10-09T22:19:48.705Z,30.40
2022-10-09T22:22:52.361Z,30.50
2022-10-09T22:26:16.997Z,30.50
2022-10-09T22:29:19.150Z,30.50
2022-10-09T22:32:21.072Z,30.50
2022-10-09T22:35:23.394Z,30.50
2022-10-09T22:38:25.756Z,30.60
2022-10-09T22:41:30.731Z,30.40
2022-10-09T22:44:32.676Z,30.60
2022-10-09T22:47:34.800Z,30.70
2022-10-09T22:50:37.107Z,30.70
2022-10-09T22:53:40.157Z,30.70
2022-10-09T22:56:44.169Z,30.70
2022-10-09T22:59:46.300Z,30.60
2022-10-09T23:02:48.420Z,30.70
2022-10-09T23:05:50.775Z,30.60
2022-10-09T23:08:53.232Z,30.50
2022-10-09T23:11:56.478Z,30.70
2022-10-09T23:14:58.492Z,30.70
2022-10-09T23:18:00.694Z,30.70
2022-10-09T23:21:04.446Z,30.70
2022-10-09T23:24:07.572Z,30.60
2022-10-09T23:27:09.556Z,30.60
2022-10-09T23:30:12.115Z,30.60
2022-10-09T23:33:14.292Z,30.60
2022-10-09T23:36:19.154Z,30.60
2022-10-09T23:39:21.201Z,30.60
2022-10-09T23:42:23.300Z,30.50
2022-10-09T23:45:25.253Z,30.50
2022-10-09T23:48:28.317Z,30.50
2022-10-09T23:51:30.524Z,30.40
2022-10-09T23:54:32.552Z,30.40
2022-10-09T23:57:34.920Z,30.40
